createdAt,value
2022-11-23T00:01:42.935Z,16.59
2022-11-23T00:04:44.412Z,16.56
2022-11-23T00:07:46.107Z,16.53
2022-11-23T00:10:47.587Z,16.54
2022-11-23T00:13:49.173Z,16.52
2022-11-23T00:16:50.636Z,16.51
2022-11-23T00:19:52.133Z,16.49
2022-11-23T00:22:53.600Z,16.49
2022-11-23T00:25:55.070Z,16.48
2022-11-23T00:28:56.647Z,16.46
2022-11-23T00:32:01.664Z,16.44
2022-11-23T00:35:03.279Z,16.42
2022-11-23T00:38:05.920Z,16.41
2022-11-23T00:41:10.140Z,16.42
2022-11-23T00:44:11.857Z,16.39
2022-11-23T00:47:13.324Z,16.39
2022-11-23T00:50:15.002Z,16.37
2022-11-23T00:53:17.252Z,16.36
2022-11-23T00:56:20.094Z,16.36
2022-11-23T00:59:21.571Z,16.36
2022-11-23T01:02:23.150Z,16.33
2022-11-23T01:05:24.638Z,16.34
2022-11-23T01:08:26.132Z,16.33
2022-11-23T01:11:30.418Z,16.34
2022-11-23T01:14:31.898Z,16.33
2022-11-23T01:17:33.358Z,16.32
2022-11-23T01:20:34.852Z,16.32
2022-11-23T01:23:36.542Z,16.32
2022-11-23T01:26:38.693Z,16.32
2022-11-23T01:29:40.133Z,16.28
2022-11-23T01:32:41.698Z,16.29
2022-11-23T01:35:43.203Z,16.29
2022-11-23T01:38:46.216Z,16.28
2022-11-23T01:41:48.713Z,16.27
2022-11-23T01:44:52.695Z,16.27
2022-11-23T01:47:54.232Z,16.25
2022-11-23T01:50:57.634Z,16.25
2022-11-23T01:54:04.958Z,16.25
2022-11-23T01:57:13.793Z,16.25
2022-11-23T02:00:15.820Z,16.22
2022-11-23T02:03:18.540Z,16.22
2022-11-23T02:06:23.067Z,16.23
2022-11-23T02:09:24.831Z,16.21
2022-11-23T02:12:26.389Z,16.22
2022-11-23T02:15:27.931Z,16.19
2022-11-23T02:18:31.552Z,16.18
2022-11-23T02:21:33.145Z,16.17
2022-11-23T02:24:40.972Z,16.16
2022-11-23T02:27:47.126Z,16.15
2022-11-23T02:30:52.484Z,16.14
2022-11-23T02:33:57.891Z,16.13
2022-11-23T02:36:59.782Z,16.12
2022-11-23T02:40:11.544Z,16.12
2022-11-23T02:43:13.596Z,16.11
2022-11-23T02:46:15.275Z,16.12
2022-11-23T02:49:16.783Z,16.10
2022-11-23T02:52:19.434Z,16.12
2022-11-23T02:55:21.056Z,16.11
2022-11-23T02:58:22.579Z,16.11
2022-11-23T03:01:24.144Z,16.12
2022-11-23T03:04:27.804Z,16.11
2022-11-23T03:07:29.804Z,16.11
2022-11-23T03:10:34.029Z,16.12
2022-11-23T03:13:36.198Z,16.11
2022-11-23T03:16:38.271Z,16.09
2022-11-23T03:19:41.764Z,16.10
2022-11-23T03:22:45.341Z,16.09
2022-11-23T03:25:58.899Z,16.09
2022-11-23T03:29:05.639Z,16.08
2022-11-23T03:32:07.426Z,16.07
2022-11-23T03:35:09.709Z,16.05
2022-11-23T03:38:22.541Z,16.04
2022-11-23T03:41:24.160Z,16.03
2022-11-23T03:44:27.960Z,16.02
2022-11-23T03:47:29.558Z,16.01
2022-11-23T03:50:31.177Z,16.00
2022-11-23T03:53:32.822Z,16.00
2022-11-23T03:56:34.439Z,16.00
2022-11-23T03:59:36.205Z,15.99
2022-11-23T04:02:37.762Z,15.99
2022-11-23T04:05:43.907Z,15.97
2022-11-23T04:09:04.076Z,15.98
2022-11-23T04:12:18.132Z,15.98
2022-11-23T04:15:20.172Z,15.98
2022-11-23T04:18:21.720Z,15.98
2022-11-23T04:21:23.576Z,15.98
2022-11-23T04:24:25.303Z,15.98
2022-11-23T04:27:29.652Z,16.00
2022-11-23T04:30:31.184Z,16.00
2022-11-23T04:33:33.592Z,16.02
2022-11-23T04:36:35.285Z,16.02
2022-11-23T04:39:37.284Z,16.03
2022-11-23T04:43:04.780Z,16.03
2022-11-23T04:46:11.300Z,16.03
2022-11-23T04:49:13.043Z,16.03
2022-11-23T04:52:14.897Z,16.04
2022-11-23T04:55:20.838Z,16.02
2022-11-23T04:58:36.544Z,16.03
2022-11-23T05:01:38.252Z,16.04
2022-11-23T05:05:06.315Z,16.04
2022-11-23T05:08:08.583Z,16.05
2022-11-23T05:11:25.330Z,16.04
2022-11-23T05:14:26.972Z,16.05
2022-11-23T05:17:28.612Z,16.05
2022-11-23T05:20:30.706Z,16.05
2022-11-23T05:23:32.624Z,16.06
2022-11-23T05:26:34.505Z,16.06
2022-11-23T05:29:37.543Z,16.05
2022-11-23T05:32:40.831Z,16.04
2022-11-23T05:35:42.347Z,16.03
2022-11-23T05:38:43.968Z,16.04
2022-11-23T05:42:01.335Z,16.02
2022-11-23T05:45:22.395Z,16.01
2022-11-23T05:48:27.923Z,16.00
2022-11-23T05:51:32.940Z,15.99
2022-11-23T05:54:35.190Z,15.98
2022-11-23T05:57:45.798Z,15.96
2022-11-23T06:00:47.355Z,15.95
2022-11-23T06:03:51.530Z,15.95
2022-11-23T06:06:59.089Z,15.94
2022-11-23T06:10:01.668Z,15.96
2022-11-23T06:13:04.922Z,15.97
2022-11-23T06:16:08.155Z,15.97
2022-11-23T06:19:20.385Z,15.97
2022-11-23T06:22:22.210Z,15.98
2022-11-23T06:25:34.862Z,16.00
2022-11-23T06:28:44.704Z,16.00
2022-11-23T06:31:46.988Z,16.00
2022-11-23T06:34:48.991Z,16.02
2022-11-23T06:37:51.954Z,16.04
2022-11-23T06:40:56.964Z,16.03
2022-11-23T06:43:58.498Z,16.05
2022-11-23T06:47:16.507Z,16.06
2022-11-23T06:50:18.963Z,16.05
2022-11-23T06:53:22.221Z,16.05
2022-11-23T06:56:31.394Z,16.05
2022-11-23T06:59:33.193Z,16.05
2022-11-23T07:02:34.799Z,16.05
2022-11-23T07:05:38.551Z,16.05
2022-11-23T07:08:43.332Z,16.03
2022-11-23T07:11:57.602Z,16.03
2022-11-23T07:14:59.075Z,16.02
2022-11-23T07:18:05.625Z,16.02
2022-11-23T07:21:08.103Z,16.01
2022-11-23T07:24:10.264Z,16.02
2022-11-23T07:27:11.775Z,16.01
2022-11-23T07:30:13.744Z,16.03
2022-11-23T07:33:15.279Z,16.01
2022-11-23T07:36:17.080Z,16.01
2022-11-23T07:39:28.529Z,16.01
2022-11-23T07:42:45.021Z,16.00
2022-11-23T07:45:47.988Z,16.00
2022-11-23T07:48:51.577Z,16.00
2022-11-23T07:51:54.200Z,15.99
2022-11-23T07:54:56.907Z,15.99
2022-11-23T07:57:58.424Z,15.97
2022-11-23T08:00:59.939Z,15.96
2022-11-23T08:04:01.420Z,15.94
2022-11-23T08:07:03.799Z,15.94
2022-11-23T08:10:05.911Z,15.95
2022-11-23T08:13:07.555Z,15.95
2022-11-23T08:16:09.496Z,15.95
2022-11-23T08:19:10.953Z,15.96
2022-11-23T08:22:15.723Z,15.96
2022-11-23T08:25:17.540Z,15.95
2022-11-23T08:28:19.577Z,15.95
2022-11-23T08:31:21.067Z,15.96
2022-11-23T08:34:22.544Z,15.96
2022-11-23T08:37:23.990Z,15.94
2022-11-23T08:40:26.047Z,15.93
2022-11-23T08:43:28.600Z,15.92
2022-11-23T08:46:30.272Z,15.91
2022-11-23T08:49:31.717Z,15.91
2022-11-23T08:52:33.287Z,15.90
2022-11-23T08:55:34.868Z,15.88
2022-11-23T08:58:36.788Z,15.89
2022-11-23T09:01:38.303Z,15.88
2022-11-23T09:04:40.928Z,15.87
2022-11-23T09:07:42.541Z,15.86
2022-11-23T09:10:44.083Z,15.86
2022-11-23T09:13:45.532Z,15.86
2022-11-23T09:16:47.031Z,15.85
2022-11-23T09:19:50.307Z,15.84
2022-11-23T09:22:53.053Z,15.84
2022-11-23T09:25:54.553Z,15.83
2022-11-23T09:28:56.015Z,15.84
2022-11-23T09:31:57.453Z,15.83
2022-11-23T09:34:58.946Z,15.84
2022-11-23T09:38:01.256Z,15.85
2022-11-23T09:41:12.528Z,15.83
2022-11-23T09:44:43.660Z,15.84
2022-11-23T09:48:14.803Z,15.84
2022-11-23T09:51:18.659Z,15.84
2022-11-23T09:54:26.676Z,15.86
2022-11-23T09:57:31.944Z,15.88
2022-11-23T10:00:46.423Z,15.89
2022-11-23T10:03:49.395Z,15.92
2022-11-23T10:07:00.270Z,15.98
2022-11-23T10:10:10.573Z,16.02
2022-11-23T10:13:30.246Z,16.05
2022-11-23T10:16:49.394Z,16.09
2022-11-23T10:20:13.436Z,16.13
2022-11-23T10:23:45.255Z,16.16
2022-11-23T10:26:49.748Z,16.18
2022-11-23T10:29:56.321Z,16.20
2022-11-23T10:32:57.683Z,16.24
2022-11-23T10:35:59.189Z,16.25
2022-11-23T10:39:02.105Z,16.28
2022-11-23T10:42:18.143Z,16.30
2022-11-23T10:45:25.302Z,16.32
2022-11-23T10:48:36.031Z,16.34
2022-11-23T10:51:37.860Z,16.35
2022-11-23T10:54:54.508Z,16.36
2022-11-23T10:57:57.112Z,16.36
2022-11-23T11:01:03.746Z,16.36
2022-11-23T11:04:22.934Z,16.38
2022-11-23T11:07:28.513Z,16.37
2022-11-23T11:11:01.056Z,16.38
2022-11-23T11:14:05.479Z,16.36
2022-11-23T11:17:26.499Z,16.38
2022-11-23T11:20:27.956Z,16.39
2022-11-23T11:23:31.267Z,16.42
2022-11-23T11:26:35.912Z,16.44
2022-11-23T11:29:45.460Z,16.44
2022-11-23T11:33:14.633Z,16.48
2022-11-23T11:36:16.929Z,16.46
2022-11-23T11:39:27.770Z,16.48
2022-11-23T11:42:34.921Z,16.48
2022-11-23T11:45:59.714Z,16.49
2022-11-23T11:49:22.736Z,16.50
2022-11-23T11:52:37.234Z,16.51
2022-11-23T11:56:04.414Z,16.52
2022-11-23T11:59:28.220Z,16.53
2022-11-23T12:02:45.152Z,16.54
2022-11-23T12:05:48.950Z,16.56
2022-11-23T12:09:12.968Z,16.57
2022-11-23T12:12:18.040Z,16.58
2022-11-23T12:19:09.163Z,16.58
2022-11-23T12:22:13.678Z,16.56
2022-11-23T12:25:33.223Z,16.57
2022-11-23T12:29:02.239Z,16.57
2022-11-23T12:32:25.592Z,16.59
2022-11-23T12:36:12.242Z,16.60
2022-11-23T12:39:32.404Z,16.60
2022-11-23T12:43:05.716Z,16.61
2022-11-23T12:46:20.898Z,16.63
2022-11-23T12:50:00.010Z,16.63
2022-11-23T12:53:35.744Z,16.64
2022-11-23T12:57:09.766Z,16.64
2022-11-23T13:00:19.797Z,16.62
2022-11-23T13:03:33.561Z,16.61
2022-11-23T13:07:29.520Z,16.63
2022-11-23T13:11:05.722Z,16.63
2022-11-23T13:14:31.290Z,16.64
2022-11-23T13:17:42.514Z,16.65
2022-11-23T13:21:07.571Z,16.66
2022-11-23T13:24:25.760Z,16.69
2022-11-23T13:27:31.704Z,16.67
2022-11-23T13:31:07.184Z,16.68
2022-11-23T13:34:02.658Z,16.68
2022-11-23T13:37:13.089Z,16.66
2022-11-23T13:40:24.595Z,16.69
2022-11-23T13:43:32.054Z,16.67
2022-11-23T13:46:35.727Z,16.67
2022-11-23T13:49:44.468Z,16.69
2022-11-23T13:52:50.724Z,16.69
2022-11-23T13:55:56.020Z,16.70
2022-11-23T13:58:58.991Z,16.71
2022-11-23T14:02:00.551Z,16.70
2022-11-23T14:05:31.501Z,16.73
2022-11-23T14:08:35.180Z,16.72
2022-11-23T14:11:50.747Z,16.72
2022-11-23T14:15:07.404Z,16.72
2022-11-23T14:18:36.065Z,16.70
2022-11-23T14:22:02.491Z,16.69
2022-11-23T14:25:35.299Z,16.69
2022-11-23T14:29:12.667Z,16.69
2022-11-23T14:32:50.263Z,16.70
2022-11-23T14:35:57.749Z,16.71
2022-11-23T14:39:14.466Z,16.70
2022-11-23T14:42:20.599Z,16.72
2022-11-23T14:45:25.363Z,16.72
2022-11-23T14:48:31.699Z,16.72
2022-11-23T14:51:34.872Z,16.71
2022-11-23T14:54:37.055Z,16.71
2022-11-23T14:57:42.365Z,16.70
2022-11-23T15:00:44.147Z,16.68
2022-11-23T15:03:56.276Z,16.70
2022-11-23T15:07:22.253Z,16.71
2022-11-23T15:10:38.906Z,16.71
2022-11-23T15:13:52.157Z,16.73
2022-11-23T15:16:53.682Z,16.71
2022-11-23T15:20:00.962Z,16.74
2022-11-23T15:23:03.834Z,16.73
2022-11-23T15:26:34.807Z,16.74
2022-11-23T15:29:39.151Z,16.72
2022-11-23T15:32:40.906Z,16.71
2022-11-23T15:35:42.546Z,16.71
2022-11-23T15:38:44.374Z,16.70
2022-11-23T15:41:47.204Z,16.70
2022-11-23T15:44:51.159Z,16.70
2022-11-23T15:47:53.076Z,16.69
2022-11-23T15:51:03.934Z,16.71
2022-11-23T15:54:11.911Z,16.71
2022-11-23T15:57:19.809Z,16.72
2022-11-23T16:00:24.810Z,16.74
2022-11-23T16:03:31.915Z,16.74
2022-11-23T16:06:41.525Z,16.76
2022-11-23T16:09:52.717Z,16.77
2022-11-23T16:13:02.731Z,16.78
2022-11-23T16:16:16.765Z,16.79
2022-11-23T16:19:24.871Z,16.82
2022-11-23T16:22:38.620Z,16.84
2022-11-23T16:25:40.212Z,16.85
2022-11-23T16:28:54.481Z,16.87
2022-11-23T16:31:59.812Z,16.87
2022-11-23T16:35:19.529Z,16.73
2022-11-23T16:38:21.096Z,16.52
2022-11-23T16:41:22.596Z,16.39
2022-11-23T16:44:24.110Z,16.36
2022-11-23T16:47:27.055Z,16.43
2022-11-23T16:50:33.770Z,16.52
2022-11-23T16:54:07.899Z,16.56
2022-11-23T16:56:56.862Z,16.63
2022-11-23T17:00:02.381Z,16.68
2022-11-23T17:03:03.952Z,16.71
2022-11-23T17:06:05.591Z,16.75
2022-11-23T17:09:08.282Z,16.77
2022-11-23T17:12:16.854Z,16.80
2022-11-23T17:15:21.453Z,16.80
2022-11-23T17:18:23.035Z,16.80
2022-11-23T17:21:24.481Z,16.80
2022-11-23T17:24:25.944Z,16.82
2022-11-23T17:27:28.235Z,16.81
2022-11-23T17:30:29.823Z,16.83
2022-11-23T17:33:31.338Z,16.84
2022-11-23T17:36:33.418Z,16.85
2022-11-23T17:39:35.781Z,16.86
2022-11-23T17:42:37.387Z,16.88
2022-11-23T17:45:38.987Z,16.89
2022-11-23T17:48:40.668Z,16.89
2022-11-23T17:51:43.106Z,16.89
2022-11-23T17:54:44.607Z,16.91
2022-11-23T17:57:46.082Z,16.91
2022-11-23T18:00:47.552Z,16.92
2022-11-23T18:03:49.646Z,16.93
2022-11-23T18:06:51.172Z,16.94
2022-11-23T18:09:52.734Z,16.97
2022-11-23T18:12:54.206Z,17.00
2022-11-23T18:15:55.853Z,17.03
2022-11-23T18:18:57.497Z,17.05
2022-11-23T18:21:59.144Z,17.05
2022-11-23T18:25:00.637Z,17.08
2022-11-23T18:28:02.121Z,17.11
2022-11-23T18:31:03.663Z,17.12
2022-11-23T18:34:05.424Z,17.13
2022-11-23T18:37:07.760Z,17.14
2022-11-23T18:40:09.713Z,17.18
2022-11-23T18:43:11.247Z,17.21
2022-11-23T18:46:19.272Z,17.25
2022-11-23T18:49:21.004Z,17.27
2022-11-23T18:52:22.856Z,17.29
2022-11-23T18:55:24.335Z,17.30
2022-11-23T18:58:25.840Z,17.31
2022-11-23T19:01:27.694Z,17.31
2022-11-23T19:04:32.367Z,17.35
2022-11-23T19:07:33.912Z,17.34
2022-11-23T19:10:37.643Z,17.38
2022-11-23T19:13:39.119Z,17.38
2022-11-23T19:16:40.601Z,17.37
2022-11-23T19:19:42.158Z,17.37
2022-11-23T19:22:43.639Z,17.37
2022-11-23T19:25:45.112Z,17.39
2022-11-23T19:28:47.216Z,17.39
2022-11-23T19:31:54.287Z,17.37
2022-11-23T19:34:55.754Z,17.37
2022-11-23T19:37:58.129Z,17.37
2022-11-23T19:40:59.628Z,17.37
2022-11-23T19:44:01.585Z,17.36
2022-11-23T19:47:06.172Z,17.37
2022-11-23T19:50:10.164Z,17.38
2022-11-23T19:53:13.060Z,17.38
2022-11-23T19:56:17.306Z,17.38
2022-11-23T19:59:18.872Z,17.40
2022-11-23T20:02:25.193Z,17.42
2022-11-23T20:05:27.249Z,17.43
2022-11-23T20:08:28.805Z,17.45
2022-11-23T20:11:32.244Z,17.48
2022-11-23T20:14:33.705Z,17.50
2022-11-23T20:17:35.188Z,17.53
2022-11-23T20:20:44.760Z,17.56
2022-11-23T20:23:47.466Z,17.58
2022-11-23T20:26:48.929Z,17.59
2022-11-23T20:29:50.399Z,17.60
2022-11-23T20:32:52.087Z,17.61
2022-11-23T20:35:53.637Z,17.63
2022-11-23T20:38:55.682Z,17.65
2022-11-23T20:41:58.549Z,17.65
2022-11-23T20:45:00.048Z,17.65
2022-11-23T20:48:01.554Z,17.66
2022-11-23T20:51:10.086Z,17.67
2022-11-23T20:54:12.204Z,17.67
2022-11-23T20:57:13.744Z,17.67
2022-11-23T21:00:16.757Z,17.67
2022-11-23T21:03:18.434Z,17.67
2022-11-23T21:06:21.115Z,17.68
2022-11-23T21:09:22.643Z,17.68
2022-11-23T21:12:47.591Z,17.68
2022-11-23T21:15:51.869Z,17.69
2022-11-23T21:18:53.356Z,17.69
2022-11-23T21:21:55.564Z,17.70
2022-11-23T21:24:57.067Z,17.70
2022-11-23T21:27:58.522Z,17.70
2022-11-23T21:31:10.115Z,17.73
2022-11-23T21:34:22.888Z,17.73
2022-11-23T21:37:25.988Z,17.71
2022-11-23T21:40:28.146Z,17.73
2022-11-23T21:43:31.223Z,17.74
2022-11-23T21:46:32.906Z,17.73
2022-11-23T21:49:34.459Z,17.73
2022-11-23T21:52:35.966Z,17.73
2022-11-23T21:55:37.457Z,17.72
2022-11-23T21:58:40.007Z,17.73
2022-11-23T22:01:42.450Z,17.72
2022-11-23T22:04:44.102Z,17.70
2022-11-23T22:08:00.531Z,17.69
2022-11-23T22:11:31.952Z,17.69
2022-11-23T22:14:33.841Z,17.66
2022-11-23T22:17:35.532Z,17.66
2022-11-23T22:20:37.530Z,17.64
2022-11-23T22:23:39.730Z,17.64
2022-11-23T22:26:41.827Z,17.64
2022-11-23T22:29:43.449Z,17.56
2022-11-23T22:32:45.054Z,17.49
2022-11-23T22:35:46.713Z,17.47
2022-11-23T22:38:48.600Z,17.44
2022-11-23T22:41:50.186Z,17.42
2022-11-23T22:44:51.784Z,17.39
2022-11-23T22:47:53.585Z,17.36
2022-11-23T22:50:56.854Z,17.35
2022-11-23T22:54:00.115Z,17.33
2022-11-23T22:57:01.719Z,17.30
2022-11-23T23:00:04.632Z,17.29
2022-11-23T23:03:06.380Z,17.27
2022-11-23T23:06:15.912Z,17.26
2022-11-23T23:09:17.840Z,17.22
2022-11-23T23:12:19.408Z,17.22
2022-11-23T23:15:21.606Z,17.19
2022-11-23T23:18:23.236Z,17.18
2022-11-23T23:21:26.443Z,17.16
2022-11-23T23:24:28.128Z,17.15
2022-11-23T23:27:30.697Z,17.14
2022-11-23T23:30:32.592Z,17.12
2022-11-23T23:33:35.201Z,17.11
2022-11-23T23:36:37.180Z,17.09
2022-11-23T23:39:38.868Z,17.07
2022-11-23T23:42:40.579Z,17.06
2022-11-23T23:45:42.301Z,17.06
2022-11-23T23:48:44.610Z,17.05
2022-11-23T23:51:51.292Z,17.03
2022-11-23T23:54:53.283Z,17.02
2022-11-23T23:57:54.901Z,17.01
